General Rodolfo Sanchez Taboada International Airport
MMML : rendu visible

Aérodrome :











RETROUVEZ-NOUS SUR...

 
LOGIN :

S'inscrire | Disclaimer

   EN    FR    IT 

 









Légende :    VFR   VFR Marginal   IFR   IFR Intensif   IFR Très Intensif
Visi : 
Plafond : 
>= 8 km
>= 3000ft
5 à 8 km
1000 à 3000 ft
1500m à 5 km
500 à 1000 ft
800 à 1500m
200 à 500 ft
< 800m
< 200 ft
Symboles :   Orages  Brouillard  Fortes neiges  Fortes précipitations  Vent > 20 kt






- Altitude de l'aérodrome : 74 ft
- Code IATA : MXL


MMML - General Rodolfo Sanchez Taboada International

METARs EXPIRÉS :
  • 300041Z 15014KT 10SM SCT120 39/05 A2971 RMK 8/080

TAF TAF MMML
Valide du 29 à 18h jusqu'au 30 à 18h UTC


291621Z 2918/3018 15010KT P6SM SKC
BECMG 2920/2921 15015KT
FM300200 15008KT P6SM SKC
BECMG 3005/3006 34006KT
FM301400 34010KT P6SM SKC
FIR MMFR / Amérique du Nord



MET'MAP, la Météo Aéronautique d'un coup d'oeil ! - Copyright ORBIFLY Décembre 2007 - Disclaimer

ORBIFLY MET'MAP TEAM :

Programmation & Développement : Alexandra Zaïnal
Sur une idée originale de : Baudouin d'Aumeries
Assistance à la programmation : Marc-Olivier Méhu
Soutien technique & logistique : Manuel Goepfert

Contact : metmap@orbifly.com




SOURCES & CREDITS :

   NOAA       Earth
Advisory